Time;durP1;ratioP1;P1;durP2;ratioP2;P2;SDS_P1;SDS_P2;PMS_P1;PMS_P2;Temp;Humidity;BMP_temperature;BMP_pressure;BME280_temperature;BME280_humidity;BME280_pressure;Samples;Min_cycle;Max_cycle;Signal;HPM_P1;HPM_P2
2021/05/12 00:00:12;;;;;;;5.33;3.83;;;11.60;99.90;;;;;;5028461;28;20264;-61
2021/05/12 00:02:41;;;;;;;6.43;3.90;;;11.60;99.90;;;;;;5027330;28;20232;-61
2021/05/12 00:05:11;;;;;;;5.87;4.13;;;11.60;99.90;;;;;;5027015;28;20242;-61
2021/05/12 00:07:39;;;;;;;5.80;3.90;;;11.60;99.90;;;;;;5028251;28;20263;-61
2021/05/12 00:10:11;;;;;;;5.53;3.90;;;11.60;99.90;;;;;;5030427;28;20283;-60
2021/05/12 00:12:39;;;;;;;5.80;3.70;;;11.60;99.90;;;;;;5029785;28;20245;-61
2021/05/12 00:15:14;;;;;;;6.43;4.00;;;11.60;99.90;;;;;;5029953;28;20259;-61
2021/05/12 00:17:44;;;;;;;7.67;3.67;;;11.50;99.90;;;;;;5030070;28;20648;-60
2021/05/12 00:20:16;;;;;;;7.90;3.70;;;11.50;99.90;;;;;;5030030;28;20593;-61
2021/05/12 00:22:48;;;;;;;4.43;3.13;;;11.60;99.90;;;;;;5029600;28;20239;-61
2021/05/12 00:25:17;;;;;;;5.17;3.40;;;11.60;99.90;;;;;;5029672;28;20250;-60
2021/05/12 00:27:46;;;;;;;6.33;3.40;;;11.60;99.90;;;;;;5029720;28;20762;-60
2021/05/12 00:30:20;;;;;;;5.60;3.50;;;11.70;99.90;;;;;;5029551;28;20239;-60
2021/05/12 00:32:48;;;;;;;4.40;3.13;;;11.60;99.90;;;;;;5029326;28;20297;-61
2021/05/12 00:35:16;;;;;;;6.63;3.93;;;11.60;99.90;;;;;;5029874;28;20323;-61
2021/05/12 00:37:44;;;;;;;5.13;3.60;;;11.60;99.90;;;;;;5029563;28;20729;-61
2021/05/12 00:40:14;;;;;;;6.67;3.90;;;11.60;99.90;;;;;;5029574;28;20247;-61
2021/05/12 00:42:43;;;;;;;5.87;3.63;;;11.50;99.90;;;;;;5029367;28;20228;-61
2021/05/12 00:45:16;;;;;;;4.73;3.53;;;11.50;99.90;;;;;;5029169;28;20239;-60
2021/05/12 00:47:48;;;;;;;6.67;3.80;;;11.50;99.90;;;;;;5029525;28;20242;-60
2021/05/12 00:50:18;;;;;;;6.40;3.87;;;11.50;99.90;;;;;;5028879;28;21953;-61
2021/05/12 00:52:46;;;;;;;6.80;3.50;;;11.50;99.90;;;;;;5028723;28;20703;-61
2021/05/12 00:55:15;;;;;;;5.40;3.53;;;11.60;99.90;;;;;;5029460;28;20577;-61
2021/05/12 00:57:43;;;;;;;6.13;3.70;;;11.60;99.90;;;;;;5028653;28;20334;-61
2021/05/12 01:00:15;;;;;;;4.80;3.40;;;11.60;99.90;;;;;;5029079;28;20232;-61
2021/05/12 01:02:43;;;;;;;7.70;3.60;;;11.60;99.90;;;;;;5029086;28;20231;-61
2021/05/12 01:05:19;;;;;;;4.67;3.50;;;11.60;99.90;;;;;;5028781;28;20235;-61
2021/05/12 01:07:47;;;;;;;6.37;3.50;;;11.60;99.90;;;;;;5028838;28;20559;-61
2021/05/12 01:10:15;;;;;;;6.40;3.67;;;11.60;99.90;;;;;;5029607;28;20235;-61
2021/05/12 01:12:42;;;;;;;6.33;3.33;;;11.60;99.90;;;;;;5028600;28;20301;-61
2021/05/12 01:15:13;;;;;;;3.80;3.40;;;11.50;99.90;;;;;;5027826;28;20258;-61
2021/05/12 01:17:42;;;;;;;4.50;3.40;;;11.60;99.90;;;;;;5028454;28;20243;-61
2021/05/12 01:20:12;;;;;;;5.87;3.77;;;11.60;99.90;;;;;;5028780;28;20235;-61
2021/05/12 01:22:41;;;;;;;4.10;3.37;;;11.50;99.90;;;;;;5043732;28;20243;-61
2021/05/12 01:25:11;;;;;;;4.50;4.10;;;11.50;99.90;;;;;;5028576;28;20654;-61
2021/05/12 01:27:39;;;;;;;5.50;4.50;;;11.50;99.90;;;;;;5028713;28;20438;-61
2021/05/12 01:30:08;;;;;;;5.30;3.77;;;11.50;99.90;;;;;;5026513;28;20610;-61
2021/05/12 01:32:37;;;;;;;6.77;4.53;;;11.50;99.90;;;;;;5020206;28;21169;-60
2021/05/12 01:35:09;;;;;;;5.73;4.03;;;11.50;99.90;;;;;;5028375;28;20239;-61
2021/05/12 01:37:38;;;;;;;7.20;4.97;;;11.60;99.90;;;;;;5028500;28;20620;-61
2021/05/12 01:40:10;;;;;;;6.93;4.97;;;11.50;99.90;;;;;;5028347;28;20375;-60
2021/05/12 01:42:37;;;;;;;7.20;5.00;;;11.50;99.90;;;;;;5028013;28;20316;-61
2021/05/12 01:45:09;;;;;;;7.90;5.30;;;11.50;99.90;;;;;;5043452;28;20334;-61
2021/05/12 01:47:37;;;;;;;7.03;5.87;;;11.50;99.90;;;;;;5028303;28;20258;-61
2021/05/12 01:50:09;;;;;;;8.00;6.40;;;11.50;99.90;;;;;;5027811;28;20270;-61
2021/05/12 01:52:39;;;;;;;11.27;7.60;;;11.50;99.90;;;;;;4981911;28;20232;-59
2021/05/12 01:55:11;;;;;;;9.70;7.83;;;11.40;99.90;;;;;;1010391;28;10002081;-61
2021/05/12 01:57:41;;;;;;;9.33;8.43;;;11.50;99.90;;;;;;5028088;28;20467;-61
2021/05/12 02:00:26;;;;;;;13.57;9.40;;;11.40;99.90;;;;;;5028175;28;20238;-60
2021/05/12 02:02:55;;;;;;;11.10;9.57;;;11.40;99.90;;;;;;5027606;28;20250;-61
2021/05/12 02:05:25;;;;;;;12.60;10.20;;;11.40;99.90;;;;;;5027712;28;20235;-60
2021/05/12 02:07:54;;;;;;;12.07;10.30;;;11.40;99.90;;;;;;5027961;28;20637;-60
2021/05/12 02:10:23;;;;;;;14.33;11.00;;;11.40;99.90;;;;;;5027779;28;20236;-61
2021/05/12 02:12:52;;;;;;;13.00;11.13;;;11.40;99.90;;;;;;5028006;28;20231;-61
2021/05/12 02:15:20;;;;;;;15.10;11.10;;;11.50;99.90;;;;;;5027892;28;20322;-59
2021/05/12 02:17:48;;;;;;;14.73;11.47;;;11.50;99.90;;;;;;5027661;28;20305;-61
2021/05/12 02:20:20;;;;;;;12.90;10.93;;;11.40;99.90;;;;;;5027852;28;20240;-61
2021/05/12 02:22:48;;;;;;;12.53;10.20;;;11.50;99.90;;;;;;5027252;28;20297;-60
2021/05/12 02:25:16;;;;;;;13.17;9.70;;;11.60;99.90;;;;;;5027300;28;20236;-60
2021/05/12 02:27:45;;;;;;;12.23;10.50;;;11.60;99.90;;;;;;5029290;28;20662;-60
2021/05/12 02:30:14;;;;;;;12.83;10.73;;;11.60;99.90;;;;;;5025730;28;20537;-61
2021/05/12 02:32:42;;;;;;;13.27;10.63;;;11.60;99.90;;;;;;5027123;28;20317;-60
2021/05/12 02:35:11;;;;;;;11.57;9.77;;;11.60;99.90;;;;;;5027892;28;20235;-61
2021/05/12 02:37:40;;;;;;;13.70;11.33;;;11.70;99.90;;;;;;5027658;28;20235;-59
2021/05/12 02:40:11;;;;;;;12.00;10.57;;;11.70;99.90;;;;;;5027812;28;20235;-61
2021/05/12 02:42:39;;;;;;;11.70;10.30;;;11.70;99.90;;;;;;5026510;28;20292;-60
2021/05/12 02:45:10;;;;;;;12.07;10.83;;;11.60;99.90;;;;;;5027334;28;20265;-60
2021/05/12 02:47:38;;;;;;;12.20;10.67;;;11.60;99.90;;;;;;5027441;28;20564;-61
2021/05/12 02:50:10;;;;;;;11.73;9.67;;;11.60;99.90;;;;;;5027182;28;20240;-61
2021/05/12 02:52:39;;;;;;;13.83;10.60;;;11.60;99.90;;;;;;5026889;28;20232;-61
2021/05/12 02:55:09;;;;;;;13.03;10.50;;;11.60;99.90;;;;;;5027394;28;20763;-61
2021/05/12 02:57:37;;;;;;;14.90;10.57;;;11.50;99.90;;;;;;5026591;28;20251;-60
2021/05/12 03:00:08;;;;;;;14.47;10.83;;;11.50;99.90;;;;;;5027260;28;20240;-60
2021/05/12 03:02:36;;;;;;;13.47;10.77;;;11.50;99.90;;;;;;5027074;28;20254;-61
2021/05/12 03:05:06;;;;;;;12.20;10.80;;;11.50;99.90;;;;;;5027222;28;20567;-60
2021/05/12 03:07:34;;;;;;;15.67;10.57;;;11.50;99.90;;;;;;5027359;28;20243;-61
2021/05/12 03:10:06;;;;;;;12.13;10.40;;;11.50;99.90;;;;;;5027083;28;20243;-59
2021/05/12 03:12:34;;;;;;;12.67;11.07;;;11.60;99.90;;;;;;5026893;28;20239;-61
2021/05/12 03:15:06;;;;;;;14.07;10.90;;;11.60;99.90;;;;;;5027511;28;20243;-61
2021/05/12 03:17:35;;;;;;;11.13;10.03;;;11.50;99.90;;;;;;5026929;28;20572;-61
2021/05/12 03:20:05;;;;;;;12.87;9.67;;;11.50;99.90;;;;;;5026560;28;20240;-60
2021/05/12 03:22:34;;;;;;;13.17;10.73;;;11.50;99.90;;;;;;5026317;28;20239;-61
2021/05/12 03:25:02;;;;;;;12.97;10.17;;;11.50;99.90;;;;;;5026787;28;20318;-60
2021/05/12 03:27:30;;;;;;;12.63;10.67;;;11.50;99.90;;;;;;5027000;28;20235;-60
2021/05/12 03:29:58;;;;;;;12.67;9.83;;;11.50;99.90;;;;;;5026594;28;20331;-61
2021/05/12 03:32:26;;;;;;;14.17;9.90;;;11.40;99.90;;;;;;5026959;28;20318;-60
2021/05/12 03:34:55;;;;;;;11.90;9.00;;;11.50;99.90;;;;;;5027124;28;20235;-60
2021/05/12 03:37:23;;;;;;;12.27;9.90;;;11.50;99.90;;;;;;5027197;28;20250;-60
2021/05/12 03:39:50;;;;;;;13.03;10.03;;;11.50;99.90;;;;;;5029924;28;20239;-60
2021/05/12 03:42:18;;;;;;;14.83;10.47;;;11.50;99.90;;;;;;5030795;28;21031;-60
2021/05/12 03:44:46;;;;;;;13.63;10.80;;;11.50;99.90;;;;;;5030990;28;20242;-60
2021/05/12 03:47:14;;;;;;;12.67;10.50;;;11.50;99.90;;;;;;5030374;28;20239;-60
2021/05/12 03:49:42;;;;;;;12.53;10.80;;;11.50;99.90;;;;;;5029860;28;20322;-61
2021/05/12 03:52:10;;;;;;;13.07;10.80;;;11.50;99.90;;;;;;5030852;28;20244;-60
2021/05/12 03:54:38;;;;;;;13.30;11.07;;;11.50;99.90;;;;;;5029883;28;20251;-61
2021/05/12 03:57:06;;;;;;;14.17;10.77;;;11.60;99.90;;;;;;5029969;28;20240;-61
2021/05/12 03:59:34;;;;;;;15.80;11.47;;;11.60;99.90;;;;;;5029951;28;20769;-61
2021/05/12 04:02:02;;;;;;;16.57;11.20;;;11.60;99.90;;;;;;5029810;28;20243;-61
2021/05/12 04:04:30;;;;;;;16.27;11.80;;;11.60;99.90;;;;;;5030176;28;20326;-61
2021/05/12 04:06:58;;;;;;;17.00;12.37;;;11.60;99.90;;;;;;5030457;28;20247;-61
2021/05/12 04:09:28;;;;;;;12.37;11.07;;;11.60;99.90;;;;;;5029986;28;20277;-61
2021/05/12 04:11:56;;;;;;;12.43;11.13;;;11.60;99.90;;;;;;5030129;28;20244;-61
2021/05/12 04:14:24;;;;;;;17.33;11.87;;;11.60;99.90;;;;;;5029987;28;20240;-61
2021/05/12 04:16:52;;;;;;;15.03;11.53;;;11.60;99.90;;;;;;5030175;28;20699;-61
2021/05/12 04:19:21;;;;;;;15.30;11.63;;;11.60;99.90;;;;;;5030010;28;20239;-60
2021/05/12 04:21:49;;;;;;;16.87;11.57;;;11.60;99.90;;;;;;5029207;28;20457;-61
2021/05/12 04:24:17;;;;;;;15.00;11.33;;;11.60;99.90;;;;;;5024392;28;20235;-60
2021/05/12 04:26:46;;;;;;;20.03;11.80;;;11.60;99.90;;;;;;5029834;28;20710;-61
2021/05/12 04:29:15;;;;;;;16.60;11.70;;;11.60;99.90;;;;;;5028435;28;20236;-61
2021/05/12 04:31:45;;;;;;;14.20;11.97;;;11.60;99.90;;;;;;5028996;28;20240;-60
2021/05/12 04:34:13;;;;;;;15.33;12.80;;;11.60;99.90;;;;;;5031090;28;20240;-61
2021/05/12 04:36:41;;;;;;;16.17;12.07;;;11.60;99.90;;;;;;5035868;28;20232;-60
2021/05/12 04:39:09;;;;;;;15.37;11.60;;;11.60;99.90;;;;;;5029548;28;20310;-61
2021/05/12 04:41:37;;;;;;;15.10;10.90;;;11.60;99.90;;;;;;5028484;28;21268;-60
2021/05/12 04:44:06;;;;;;;16.23;12.23;;;11.60;99.90;;;;;;5029290;28;20331;-60
2021/05/12 04:46:36;;;;;;;14.17;11.90;;;11.70;99.90;;;;;;5028875;28;20236;-60
2021/05/12 04:49:06;;;;;;;13.80;12.07;;;11.70;99.90;;;;;;5028227;28;20702;-59
2021/05/12 04:51:35;;;;;;;16.13;12.37;;;11.70;99.90;;;;;;5028654;28;20572;-61
2021/05/12 04:54:04;;;;;;;14.03;11.73;;;11.70;99.90;;;;;;5028438;28;20738;-61
2021/05/12 04:56:32;;;;;;;17.20;12.23;;;11.80;99.90;;;;;;5028494;28;20248;-61
2021/05/12 04:59:00;;;;;;;17.53;12.70;;;11.80;99.90;;;;;;5028805;28;20293;-61
2021/05/12 05:01:30;;;;;;;18.87;11.90;;;11.80;99.90;;;;;;5027719;28;20263;-61
2021/05/12 05:03:58;;;;;;;19.17;13.23;;;11.80;99.90;;;;;;5028568;28;20246;-61
2021/05/12 05:06:26;;;;;;;21.60;14.13;;;11.80;99.90;;;;;;5028437;28;20276;-61
2021/05/12 05:08:54;;;;;;;21.93;14.77;;;11.80;99.90;;;;;;5008827;28;20276;-61
2021/05/12 05:11:23;;;;;;;19.73;14.57;;;11.80;99.90;;;;;;5036225;28;20239;-60
2021/05/12 05:13:51;;;;;;;18.97;14.20;;;11.80;99.90;;;;;;5028792;28;20628;-60
2021/05/12 05:16:18;;;;;;;17.30;14.30;;;11.80;99.90;;;;;;5027904;28;20236;-60
2021/05/12 05:18:48;;;;;;;19.00;14.47;;;11.80;99.90;;;;;;5025508;28;20305;-60
2021/05/12 05:21:16;;;;;;;20.33;15.63;;;11.90;99.90;;;;;;5026236;28;20343;-60
2021/05/12 05:23:44;;;;;;;20.23;15.87;;;11.90;99.90;;;;;;5028240;28;20246;-59
2021/05/12 05:26:12;;;;;;;19.17;15.00;;;11.90;99.90;;;;;;5028623;28;20236;-61
2021/05/12 05:28:40;;;;;;;19.87;15.93;;;11.90;99.90;;;;;;5023301;28;20243;-60
2021/05/12 05:31:08;;;;;;;20.83;16.03;;;12.00;99.90;;;;;;5024005;28;20239;-61
2021/05/12 05:33:55;;;;;;;18.90;14.87;;;11.90;99.90;;;;;;5027685;28;20302;-61
2021/05/12 05:36:41;;;;;;;21.33;15.57;;;11.90;99.90;;;;;;5028464;28;20245;-59
2021/05/12 05:39:35;;;;;;;19.77;16.07;;;11.90;99.90;;;;;;5026674;28;20247;-61
2021/05/12 05:42:21;;;;;;;19.83;14.37;;;11.90;99.90;;;;;;5026421;28;20242;-60
2021/05/12 05:45:10;;;;;;;21.30;15.50;;;11.90;99.90;;;;;;5027132;28;20364;-61
2021/05/12 05:47:56;;;;;;;19.23;14.93;;;12.00;99.90;;;;;;5025051;28;20373;-60
2021/05/12 05:50:44;;;;;;;26.17;16.23;;;12.00;99.90;;;;;;5026972;28;20317;-61
2021/05/12 05:53:47;;;;;;;18.07;13.63;;;12.10;99.90;;;;;;4986835;28;20642;-61
2021/05/12 05:56:33;;;;;;;16.37;12.93;;;12.20;99.90;;;;;;5023162;28;20253;-61
2021/05/12 05:59:20;;;;;;;15.87;12.30;;;12.30;99.90;;;;;;5027940;28;20246;-61
2021/05/12 06:02:07;;;;;;;16.33;12.00;;;12.30;99.90;;;;;;5027185;28;20561;-60
2021/05/12 06:04:53;;;;;;;13.63;12.00;;;12.30;99.90;;;;;;5026562;28;20448;-61
2021/05/12 06:07:45;;;;;;;13.93;11.57;;;12.40;99.90;;;;;;5006895;28;20322;-61
2021/05/12 06:10:31;;;;;;;17.57;11.60;;;12.50;99.90;;;;;;5027771;28;20325;-60
2021/05/12 06:13:18;;;;;;;17.47;11.20;;;12.60;99.90;;;;;;5026463;28;20247;-60
2021/05/12 06:16:05;;;;;;;14.83;11.23;;;12.50;99.90;;;;;;5029440;28;20239;-61
2021/05/12 06:18:52;;;;;;;17.77;11.13;;;12.50;99.90;;;;;;5028657;28;20245;-61
2021/05/12 06:21:39;;;;;;;14.20;10.97;;;12.60;99.90;;;;;;5032302;28;20433;-60
2021/05/12 06:24:26;;;;;;;17.03;11.00;;;12.60;99.90;;;;;;5027181;28;20713;-61
2021/05/12 06:27:29;;;;;;;18.53;11.03;;;12.70;99.90;;;;;;5004070;28;20232;-60
2021/05/12 06:30:18;;;;;;;12.00;10.43;;;12.80;99.90;;;;;;4989858;28;20323;-60
2021/05/12 06:33:08;;;;;;;16.17;11.10;;;12.90;99.90;;;;;;5025386;28;20313;-59
2021/05/12 06:35:54;;;;;;;14.77;10.53;;;13.00;99.90;;;;;;5019056;28;20764;-61
2021/05/12 06:38:51;;;;;;;13.13;11.00;;;13.00;99.90;;;;;;5005503;28;20245;-60
2021/05/12 06:41:21;;;;;;;15.37;11.07;;;13.00;99.90;;;;;;5041349;28;20232;-60
2021/05/12 06:43:49;;;;;;;14.63;10.90;;;13.00;99.90;;;;;;5040567;28;20237;-58
2021/05/12 06:46:18;;;;;;;14.63;11.23;;;13.00;99.90;;;;;;5017154;28;20758;-60
2021/05/12 06:48:46;;;;;;;13.87;10.70;;;13.00;99.90;;;;;;5024200;28;20297;-60
2021/05/12 06:51:13;;;;;;;14.70;10.23;;;13.00;99.90;;;;;;5021087;28;20250;-61
2021/05/12 06:53:41;;;;;;;14.33;11.07;;;13.10;99.90;;;;;;5027163;28;20731;-60
2021/05/12 06:56:09;;;;;;;14.80;10.67;;;13.30;99.90;;;;;;5038946;28;20596;-60
2021/05/12 06:58:41;;;;;;;11.73;10.30;;;13.30;99.90;;;;;;5026581;28;20232;-59
2021/05/12 07:01:09;;;;;;;12.37;10.23;;;13.30;99.90;;;;;;5007623;28;20248;-60
2021/05/12 07:03:37;;;;;;;17.40;12.30;;;13.40;99.90;;;;;;5007486;28;20288;-59
2021/05/12 07:06:05;;;;;;;11.57;10.37;;;13.40;99.90;;;;;;5015640;28;20240;-60
2021/05/12 07:08:34;;;;;;;12.23;10.60;;;13.50;99.90;;;;;;5026637;28;20737;-59
2021/05/12 07:11:02;;;;;;;13.73;10.60;;;13.50;99.90;;;;;;5026584;28;20238;-59
2021/05/12 07:13:30;;;;;;;13.77;10.47;;;13.40;99.90;;;;;;5028084;28;20242;-60
2021/05/12 07:15:58;;;;;;;14.50;10.53;;;13.40;99.90;;;;;;5030011;28;20290;-59
2021/05/12 07:18:27;;;;;;;13.70;10.53;;;13.40;99.90;;;;;;5030888;28;20236;-59
2021/05/12 07:20:55;;;;;;;12.93;11.17;;;13.50;99.90;;;;;;5030713;28;20240;-60
2021/05/12 07:23:24;;;;;;;14.73;11.33;;;13.40;99.90;;;;;;5031300;28;20254;-60
2021/05/12 07:25:55;;;;;;;14.17;11.00;;;13.40;99.90;;;;;;5030849;28;20240;-60
2021/05/12 07:28:23;;;;;;;14.83;12.17;;;13.30;99.90;;;;;;5030221;28;20236;-59
2021/05/12 07:30:52;;;;;;;13.00;10.37;;;13.40;99.90;;;;;;5028705;28;20252;-60
2021/05/12 07:33:41;;;;;;;14.70;11.13;;;13.40;99.90;;;;;;5030458;28;20243;-60
2021/05/12 07:36:09;;;;;;;14.87;10.77;;;13.50;99.90;;;;;;5030500;28;20244;-60
2021/05/12 07:38:38;;;;;;;16.10;11.00;;;13.50;99.90;;;;;;5030248;28;20712;-60
2021/05/12 07:41:06;;;;;;;15.43;11.60;;;13.40;99.90;;;;;;5029927;28;20240;-60
2021/05/12 07:43:34;;;;;;;14.63;11.33;;;13.40;99.90;;;;;;5030184;28;20243;-59
2021/05/12 07:46:02;;;;;;;14.23;9.80;;;13.50;99.90;;;;;;5030582;28;20236;-59
2021/05/12 07:48:30;;;;;;;14.30;9.17;;;13.60;99.90;;;;;;5029930;28;20236;-60
2021/05/12 07:51:00;;;;;;;16.23;9.70;;;13.60;99.90;;;;;;5033631;28;20235;-60
2021/05/12 07:53:28;;;;;;;14.87;9.97;;;13.70;99.90;;;;;;5031932;28;20600;-60
2021/05/12 07:55:55;;;;;;;14.33;8.70;;;13.80;99.90;;;;;;5030059;28;20427;-60
2021/05/12 07:58:23;;;;;;;13.17;8.63;;;13.80;99.90;;;;;;5029802;28;20733;-60
2021/05/12 08:00:52;;;;;;;13.07;8.53;;;13.90;99.90;;;;;;5030511;28;20726;-60
2021/05/12 08:03:20;;;;;;;11.93;7.87;;;13.90;99.90;;;;;;5030032;28;20252;-58
2021/05/12 08:05:49;;;;;;;14.00;7.73;;;13.90;99.90;;;;;;5030200;28;20232;-59
2021/05/12 08:08:17;;;;;;;11.87;7.43;;;13.90;99.90;;;;;;5030468;28;20236;-60
2021/05/12 08:10:46;;;;;;;11.50;7.13;;;13.90;99.90;;;;;;5029995;28;20689;-58
2021/05/12 08:13:14;;;;;;;10.23;7.30;;;13.90;99.90;;;;;;5031972;28;20319;-59
2021/05/12 08:15:42;;;;;;;10.03;7.13;;;14.00;99.90;;;;;;5025128;28;20232;-58
2021/05/12 08:18:09;;;;;;;11.53;7.13;;;14.10;99.90;;;;;;5044322;28;20238;-59
2021/05/12 08:20:37;;;;;;;9.60;6.97;;;14.10;99.90;;;;;;5029400;28;20241;-59
2021/05/12 08:23:06;;;;;;;10.03;7.03;;;14.20;99.90;;;;;;5030026;28;20290;-59
2021/05/12 08:25:34;;;;;;;11.37;6.60;;;14.10;99.90;;;;;;5028688;28;20274;-58
2021/05/12 08:28:02;;;;;;;10.33;6.07;;;14.00;99.90;;;;;;5023959;28;20312;-59
2021/05/12 08:30:35;;;;;;;14.07;6.37;;;13.90;99.90;;;;;;5029812;28;20236;-58
2021/05/12 08:33:03;;;;;;;11.17;5.80;;;13.90;99.90;;;;;;5028295;28;20232;-59
2021/05/12 08:35:31;;;;;;;11.70;5.37;;;13.90;99.90;;;;;;5029105;28;20240;-59
2021/05/12 08:37:59;;;;;;;9.20;5.30;;;13.80;99.90;;;;;;5019585;28;20264;-60
2021/05/12 08:40:28;;;;;;;14.73;5.87;;;13.80;99.90;;;;;;5017243;28;20253;-60
2021/05/12 08:42:58;;;;;;;9.73;5.30;;;13.70;99.90;;;;;;5018542;28;20260;-60
2021/05/12 08:45:26;;;;;;;10.73;5.80;;;13.60;99.90;;;;;;5016717;28;20244;-60
2021/05/12 08:47:56;;;;;;;11.77;5.70;;;13.70;99.90;;;;;;5008552;28;20248;-58
2021/05/12 08:50:27;;;;;;;9.67;5.47;;;13.70;99.90;;;;;;5015297;28;20249;-59
2021/05/12 08:52:55;;;;;;;8.77;6.03;;;13.60;99.90;;;;;;5010380;28;20245;-60
2021/05/12 08:55:23;;;;;;;9.17;5.73;;;13.60;99.90;;;;;;5023919;28;20370;-59
2021/05/12 08:57:50;;;;;;;9.80;5.63;;;13.50;99.90;;;;;;5025680;28;20239;-58
2021/05/12 09:00:21;;;;;;;10.03;6.50;;;13.50;99.90;;;;;;5021267;28;20698;-56
2021/05/12 09:02:49;;;;;;;10.53;6.73;;;13.60;99.90;;;;;;5027426;28;20232;-59
2021/05/12 09:05:17;;;;;;;8.57;5.63;;;13.70;99.90;;;;;;5027527;28;20239;-57
2021/05/12 09:07:45;;;;;;;8.63;5.23;;;13.90;99.90;;;;;;5026960;28;20584;-57
2021/05/12 09:10:14;;;;;;;11.33;5.70;;;13.90;99.90;;;;;;5029615;28;20232;-59
2021/05/12 09:12:44;;;;;;;11.37;5.97;;;13.90;99.90;;;;;;5030297;28;20248;-59
2021/05/12 09:15:17;;;;;;;8.30;4.83;;;14.00;99.90;;;;;;5028376;28;20236;-58
2021/05/12 09:17:48;;;;;;;9.63;4.70;;;13.90;99.90;;;;;;5028825;28;20248;-59
2021/05/12 09:20:31;;;;;;;6.37;4.70;;;13.80;99.90;;;;;;5028472;28;20708;-59
2021/05/12 09:23:09;;;;;;;6.03;4.00;;;13.70;99.90;;;;;;5028098;28;20240;-58
2021/05/12 09:25:39;;;;;;;7.13;4.60;;;13.70;99.90;;;;;;5028399;28;20232;-59
2021/05/12 09:28:13;;;;;;;8.77;4.80;;;13.70;99.90;;;;;;5028943;28;20239;-60
2021/05/12 09:30:43;;;;;;;10.07;4.77;;;13.60;99.90;;;;;;5028180;28;20282;-57
2021/05/12 09:33:27;;;;;;;5.80;3.90;;;13.50;99.90;;;;;;5028453;28;20235;-57
2021/05/12 09:35:55;;;;;;;7.10;4.93;;;13.50;99.90;;;;;;5026141;28;20232;-56
2021/05/12 09:38:25;;;;;;;8.87;4.50;;;13.50;99.90;;;;;;5028547;28;20596;-57
2021/05/12 09:41:11;;;;;;;5.93;4.83;;;13.60;99.90;;;;;;5028564;28;20260;-57
2021/05/12 09:43:46;;;;;;;6.40;5.17;;;13.70;99.90;;;;;;5027822;28;20707;-56
2021/05/12 09:46:23;;;;;;;7.73;5.20;;;13.80;99.90;;;;;;5027807;28;20228;-56
2021/05/12 09:49:12;;;;;;;6.20;5.07;;;13.70;99.90;;;;;;5028292;28;20809;-58
2021/05/12 09:51:43;;;;;;;7.43;4.97;;;13.60;99.90;;;;;;5028197;28;20248;-57
2021/05/12 09:54:17;;;;;;;6.43;4.90;;;13.70;99.90;;;;;;5027834;28;20237;-57
2021/05/12 09:56:52;;;;;;;6.40;5.10;;;13.60;99.90;;;;;;5027801;28;20355;-58
2021/05/12 09:59:24;;;;;;;7.37;5.90;;;13.60;99.90;;;;;;5028235;28;20245;-58
2021/05/12 10:01:54;;;;;;;7.10;5.50;;;13.60;99.90;;;;;;5027857;28;20661;-58
2021/05/12 10:04:35;;;;;;;6.80;6.10;;;13.60;99.90;;;;;;5026950;28;21128;-58
2021/05/12 10:07:14;;;;;;;9.60;6.80;;;13.60;99.90;;;;;;5026377;28;20727;-57
2021/05/12 10:09:44;;;;;;;8.97;7.40;;;13.70;99.90;;;;;;5025558;28;20286;-57
2021/05/12 10:12:16;;;;;;;9.13;7.67;;;13.80;99.90;;;;;;5026060;28;20242;-57
2021/05/12 10:14:46;;;;;;;10.73;8.67;;;13.90;99.90;;;;;;5026669;28;20250;-57
2021/05/12 10:17:16;;;;;;;15.27;9.50;;;14.00;99.90;;;;;;5039415;28;20298;-57
2021/05/12 10:19:48;;;;;;;11.43;10.10;;;14.20;99.90;;;;;;5026633;28;20232;-57
2021/05/12 10:22:18;;;;;;;11.40;9.73;;;14.20;99.90;;;;;;5024581;28;20244;-57
2021/05/12 10:24:49;;;;;;;16.43;11.17;;;14.10;99.90;;;;;;5025828;28;20271;-57
2021/05/12 10:27:19;;;;;;;14.00;10.33;;;14.20;99.90;;;;;;5024320;28;20773;-57
2021/05/12 10:29:52;;;;;;;12.73;9.93;;;14.30;99.90;;;;;;5026232;28;20246;-57
2021/05/12 10:32:26;;;;;;;13.33;9.40;;;14.30;99.90;;;;;;5026364;28;20240;-57
2021/05/12 10:35:04;;;;;;;13.40;10.30;;;14.40;99.90;;;;;;5025633;28;20307;-57
2021/05/12 10:37:36;;;;;;;11.83;9.67;;;14.60;99.90;;;;;;5026747;28;20231;-58
2021/05/12 10:40:07;;;;;;;13.87;9.70;;;15.00;99.90;;;;;;5025884;28;20509;-56
2021/05/12 10:42:54;;;;;;;10.03;8.90;;;15.50;99.90;;;;;;5026100;28;20240;-57
2021/05/12 10:46:06;;;;;;;11.67;8.60;;;15.90;99.90;;;;;;5025212;28;20268;-56
2021/05/12 10:48:40;;;;;;;12.67;8.10;;;15.80;99.90;;;;;;5023107;28;20267;-58
2021/05/12 10:51:30;;;;;;;11.03;7.93;;;15.60;99.90;;;;;;5028459;28;20235;-57
2021/05/12 10:54:01;;;;;;;12.27;7.77;;;16.00;99.90;;;;;;5029129;28;20241;-57
2021/05/12 10:56:36;;;;;;;9.87;7.23;;;16.30;99.90;;;;;;5030767;28;20235;-57
2021/05/12 10:59:05;;;;;;;11.20;8.00;;;16.00;99.90;;;;;;5031440;28;20746;-57
2021/05/12 11:01:36;;;;;;;11.03;7.93;;;15.60;99.90;;;;;;5030767;28;20231;-57
2021/05/12 11:04:09;;;;;;;8.97;6.90;;;15.50;99.90;;;;;;5031390;28;20806;-56
2021/05/12 11:07:09;;;;;;;11.63;7.37;;;15.60;99.90;;;;;;5029081;28;20328;-57
2021/05/12 11:09:46;;;;;;;10.93;7.23;;;15.60;99.90;;;;;;5030463;28;20232;-56
2021/05/12 11:12:23;;;;;;;9.40;7.07;;;15.30;99.90;;;;;;5031187;28;20259;-57
2021/05/12 11:14:57;;;;;;;8.23;6.70;;;15.20;99.90;;;;;;5030566;28;20235;-57
2021/05/12 11:17:47;;;;;;;10.47;6.10;;;15.30;99.90;;;;;;5027921;28;20248;-57
2021/05/12 11:20:21;;;;;;;7.90;5.40;;;15.30;99.90;;;;;;5031052;28;20236;-57
2021/05/12 11:22:51;;;;;;;6.53;5.30;;;15.40;99.90;;;;;;5030602;28;20271;-57
2021/05/12 11:33:51;;;;;;;4.57;4.10;;;15.20;99.90;;;;;;5022734;28;20256;-57
2021/05/12 11:36:22;;;;;;;6.90;5.00;;;15.10;99.90;;;;;;5030226;28;20237;-58
2021/05/12 11:38:53;;;;;;;5.90;5.30;;;15.00;99.90;;;;;;5030804;28;20246;-58
2021/05/12 11:41:23;;;;;;;8.40;5.77;;;15.10;99.90;;;;;;5029821;28;20232;-59
2021/05/12 11:43:54;;;;;;;10.60;6.00;;;15.10;99.90;;;;;;5029158;28;20315;-56
2021/05/12 11:46:25;;;;;;;9.30;6.40;;;15.30;99.90;;;;;;5028548;28;20237;-57
2021/05/12 11:48:56;;;;;;;8.03;5.43;;;15.50;99.90;;;;;;5029195;28;20243;-59
2021/05/12 11:51:37;;;;;;;8.23;5.70;;;15.60;99.90;;;;;;5029083;28;20233;-56
2021/05/12 11:54:13;;;;;;;6.83;5.50;;;15.50;99.90;;;;;;5029350;28;20266;-57
2021/05/12 11:56:42;;;;;;;7.33;5.90;;;15.40;99.90;;;;;;5028668;28;20442;-59
2021/05/12 11:59:13;;;;;;;6.07;5.03;;;15.30;99.90;;;;;;5027613;28;20286;-58
2021/05/12 12:01:44;;;;;;;8.17;5.43;;;15.40;99.90;;;;;;5023927;28;20320;-58
2021/05/12 12:04:19;;;;;;;7.80;5.50;;;15.60;99.90;;;;;;5024130;28;20699;-58
2021/05/12 12:06:48;;;;;;;6.47;5.67;;;15.60;99.90;;;;;;5026248;28;20699;-58
2021/05/12 12:09:19;;;;;;;7.40;5.07;;;15.60;99.90;;;;;;5028165;28;20237;-58
2021/05/12 12:11:47;;;;;;;5.53;4.83;;;15.40;99.90;;;;;;5027292;28;20248;-58
2021/05/12 12:14:16;;;;;;;7.07;4.67;;;15.40;99.90;;;;;;5027833;28;20229;-58
2021/05/12 12:16:47;;;;;;;6.37;4.87;;;15.20;99.90;;;;;;5028688;28;20239;-59
2021/05/12 12:19:18;;;;;;;6.70;4.70;;;15.20;99.90;;;;;;5030096;28;20297;-60
2021/05/12 12:21:48;;;;;;;6.07;4.70;;;15.40;99.90;;;;;;5029383;28;20268;-60
2021/05/12 12:24:21;;;;;;;4.70;4.20;;;15.50;99.90;;;;;;5029644;28;20248;-58
2021/05/12 12:26:52;;;;;;;5.23;4.73;;;15.60;99.90;;;;;;5029017;28;20754;-58
2021/05/12 12:29:23;;;;;;;5.10;4.07;;;15.80;99.90;;;;;;5029876;28;20241;-59
2021/05/12 12:31:54;;;;;;;4.50;3.10;;;15.90;99.90;;;;;;5029725;28;20602;-58
2021/05/12 12:34:25;;;;;;;3.40;3.10;;;15.80;99.90;;;;;;5029950;28;20236;-59
2021/05/12 12:37:06;;;;;;;3.43;3.13;;;15.50;99.90;;;;;;5029423;28;20319;-59
2021/05/12 12:39:51;;;;;;;3.37;3.07;;;15.30;99.90;;;;;;5010186;28;20252;-59
2021/05/12 12:42:26;;;;;;;3.53;3.13;;;15.30;99.90;;;;;;5027765;28;20291;-58
2021/05/12 12:44:54;;;;;;;4.77;3.33;;;15.30;99.90;;;;;;5029278;28;20753;-59
2021/05/12 12:47:24;;;;;;;4.50;3.00;;;15.30;99.90;;;;;;5022421;28;20257;-59
2021/05/12 12:49:55;;;;;;;3.90;2.97;;;15.40;99.90;;;;;;5028369;28;20241;-58
2021/05/12 12:52:26;;;;;;;4.07;3.23;;;15.50;99.90;;;;;;5027677;28;20647;-60
2021/05/12 12:54:59;;;;;;;3.60;2.90;;;15.60;99.90;;;;;;5027825;28;20286;-59
2021/05/12 12:57:38;;;;;;;2.97;2.63;;;15.60;99.90;;;;;;5024505;28;20585;-59
2021/05/12 13:00:23;;;;;;;3.33;2.50;;;15.60;99.90;;;;;;5025634;28;20332;-58
2021/05/12 13:03:05;;;;;;;3.83;2.30;;;15.60;99.90;;;;;;5027887;28;20220;-60
2021/05/12 13:05:40;;;;;;;4.07;2.20;;;15.80;99.90;;;;;;5026681;28;20232;-59
2021/05/12 13:08:23;;;;;;;2.27;1.80;;;15.80;99.90;;;;;;5025762;28;21808;-58